Time;durP1;ratioP1;P1;durP2;ratioP2;P2;SDS_P1;SDS_P2;PMS_P1;PMS_P2;Temp;Humidity;BMP_temperature;BMP_pressure;BME280_temperature;BME280_humidity;BME280_pressure;Samples;Min_cycle;Max_cycle;Signal;HPM_P1;HPM_P2
2021/12/22 00:02:06;;;;;;;43.15;23.83;;;;;;;-4.93;100.00;102153.44;5018322;28;20132;-82
2021/12/22 00:04:37;;;;;;;43.15;25.05;;;;;;;-4.96;100.00;102157.88;5028141;28;20053;-83
2021/12/22 00:07:02;;;;;;;46.38;24.50;;;;;;;-4.94;100.00;102159.56;5029270;28;20121;-81
2021/12/22 00:09:27;;;;;;;42.05;24.10;;;;;;;-4.92;100.00;102156.91;5028291;28;20179;-82
2021/12/22 00:11:53;;;;;;;44.85;25.40;;;;;;;-5.03;100.00;102160.63;5027404;28;20498;-81
2021/12/22 00:14:18;;;;;;;42.03;22.67;;;;;;;-4.97;100.00;102159.63;5010368;28;20150;-82
2021/12/22 00:16:43;;;;;;;42.53;24.45;;;;;;;-4.95;100.00;102157.81;5002411;28;20124;-81
2021/12/22 00:19:09;;;;;;;43.08;24.30;;;;;;;-5.00;100.00;102154.47;5010706;28;20465;-81
2021/12/22 00:21:34;;;;;;;41.13;21.63;;;;;;;-4.95;100.00;102157.81;5028710;28;20029;-81
2021/12/22 00:24:00;;;;;;;40.25;24.50;;;;;;;-4.95;100.00;102163.06;5027420;28;20045;-81
2021/12/22 00:26:25;;;;;;;41.25;23.55;;;;;;;-5.01;100.00;102152.72;5028414;28;20152;-81
2021/12/22 00:28:50;;;;;;;42.75;25.15;;;;;;;-4.99;100.00;102156.19;5023778;28;20048;-81
2021/12/22 00:31:19;;;;;;;46.92;24.60;;;;;;;-4.98;100.00;102155.28;5024385;28;20136;-81
2021/12/22 00:33:49;;;;;;;38.78;21.50;;;;;;;-4.93;100.00;102155.19;5018980;28;20037;-81
2021/12/22 00:36:21;;;;;;;43.97;24.52;;;;;;;-4.97;100.00;102150.91;5024268;28;20044;-81
2021/12/22 00:38:47;;;;;;;41.50;24.73;;;;;;;-4.96;100.00;102145.63;5022661;28;20694;-81
2021/12/22 00:41:14;;;;;;;41.13;23.95;;;;;;;-4.99;100.00;102149.19;5036368;28;20041;-81
2021/12/22 00:43:40;;;;;;;38.58;22.67;;;;;;;-4.99;100.00;102161.41;5024242;28;20040;-81
2021/12/22 00:46:06;;;;;;;41.72;24.52;;;;;;;-5.03;100.00;102171.09;5026951;28;20068;-81
2021/12/22 00:48:32;;;;;;;37.95;22.90;;;;;;;-5.05;100.00;102166.78;5004392;28;20111;-80
2021/12/22 00:50:57;;;;;;;39.28;23.70;;;;;;;-5.06;100.00;102167.69;5027514;28;20057;-79
2021/12/22 00:53:23;;;;;;;37.85;22.25;;;;;;;-5.07;100.00;102168.56;5026419;28;20025;-81
2021/12/22 00:55:49;;;;;;;41.17;23.85;;;;;;;-5.13;100.00;102166.91;5026379;28;20499;-80
2021/12/22 00:58:16;;;;;;;36.70;22.50;;;;;;;-5.12;100.00;102166.03;5026496;28;20521;-80
2021/12/22 01:00:46;;;;;;;38.60;21.85;;;;;;;-5.11;100.00;102172.13;5023630;28;20097;-80
2021/12/22 01:03:14;;;;;;;40.05;22.65;;;;;;;-5.23;100.00;102168.00;5038913;28;20033;-80
2021/12/22 01:05:40;;;;;;;37.53;20.65;;;;;;;-5.24;100.00;102175.00;5026039;28;20748;-80
2021/12/22 01:08:07;;;;;;;37.63;22.48;;;;;;;-5.25;100.00;102168.03;5026611;28;20045;-80
2021/12/22 01:10:34;;;;;;;42.17;23.33;;;;;;;-5.24;100.00;102168.88;5025016;28;20041;-80
2021/12/22 01:13:02;;;;;;;41.28;23.50;;;;;;;-5.24;100.00;102176.72;5040403;28;20045;-79
2021/12/22 01:15:29;;;;;;;38.20;22.20;;;;;;;-5.26;100.00;102174.16;5024311;28;20041;-80
2021/12/22 01:18:05;;;;;;;38.65;22.95;;;;;;;-5.29;100.00;102173.38;5027392;28;20432;-80
2021/12/22 01:20:37;;;;;;;39.58;23.67;;;;;;;-5.31;100.00;102173.38;5023270;28;20094;-80
2021/12/22 01:23:06;;;;;;;39.72;24.02;;;;;;;-5.30;100.00;102172.47;5022202;28;20029;-80
2021/12/22 01:25:36;;;;;;;39.58;23.88;;;;;;;-5.29;100.00;102178.59;5025138;28;20049;-80
2021/12/22 01:28:02;;;;;;;38.45;22.80;;;;;;;-5.27;100.00;102172.41;5026182;28;20478;-81
2021/12/22 01:30:30;;;;;;;43.50;24.75;;;;;;;-5.36;100.00;102176.97;5024720;28;20124;-80
2021/12/22 01:32:58;;;;;;;37.47;21.15;;;;;;;-5.39;100.00;102177.88;5026593;28;20596;-80
2021/12/22 01:35:32;;;;;;;42.05;23.50;;;;;;;-5.46;100.00;102171.91;5027080;28;20061;-81
2021/12/22 01:37:58;;;;;;;45.25;23.58;;;;;;;-5.45;100.00;102170.16;5026240;28;20044;-80
2021/12/22 01:40:24;;;;;;;42.78;24.25;;;;;;;-5.42;100.00;102177.94;5026399;28;20049;-81
2021/12/22 01:42:51;;;;;;;39.08;23.30;;;;;;;-5.36;100.00;102180.44;5027009;28;20049;-80
2021/12/22 01:51:35;;;;;;;40.22;23.67;;;;;;;-5.41;100.00;102184.03;5022840;28;20044;-82
2021/12/22 01:54:04;;;;;;;40.58;24.52;;;;;;;-5.41;100.00;102178.81;5024568;28;20486;-81
2021/12/22 01:56:33;;;;;;;40.55;24.08;;;;;;;-5.51;100.00;102178.13;5016910;28;20072;-81
2021/12/22 01:59:01;;;;;;;37.80;22.85;;;;;;;-5.47;100.00;102164.97;5025463;28;20038;-81
2021/12/22 02:01:29;;;;;;;36.92;22.23;;;;;;;-5.52;100.00;102187.72;5035664;28;22319;-80
2021/12/22 02:03:55;;;;;;;38.13;22.35;;;;;;;-5.51;100.00;102175.50;5027404;28;20045;-81
2021/12/22 02:06:22;;;;;;;38.60;23.80;;;;;;;-5.53;100.00;102172.03;5025219;28;20049;-81
2021/12/22 02:08:48;;;;;;;41.15;23.63;;;;;;;-5.55;100.00;102171.19;5019982;28;20033;-80
2021/12/22 02:11:17;;;;;;;43.50;25.02;;;;;;;-5.56;100.00;102170.34;5025040;28;20041;-80
2021/12/22 02:13:47;;;;;;;39.38;22.92;;;;;;;-5.61;100.00;102168.69;5020615;28;20493;-80
2021/12/22 02:16:14;;;;;;;44.58;24.58;;;;;;;-5.59;100.00;102166.94;5016835;28;20038;-80
2021/12/22 02:18:48;;;;;;;41.15;23.35;;;;;;;-5.58;100.00;102166.91;5024665;28;20071;-81
2021/12/22 02:21:15;;;;;;;39.33;22.58;;;;;;;-5.59;100.00;102173.00;5037487;28;20048;-81
2021/12/22 02:23:42;;;;;;;39.55;22.30;;;;;;;-5.55;100.00;102171.19;5009149;28;20041;-80
2021/12/22 02:26:21;;;;;;;39.50;21.80;;;;;;;-5.54;100.00;102172.94;5026195;28;20493;-80
2021/12/22 02:28:56;;;;;;;40.17;22.80;;;;;;;-5.60;100.00;102163.44;5020370;28;20639;-81
2021/12/22 02:31:24;;;;;;;38.95;22.40;;;;;;;-5.63;100.00;102170.50;5024021;28;20490;-82
2021/12/22 02:33:51;;;;;;;42.58;22.70;;;;;;;-5.63;100.00;102160.03;5026428;28;20132;-80
2021/12/22 02:36:27;;;;;;;38.22;22.50;;;;;;;-5.69;100.00;102164.47;5022001;28;20557;-80
2021/12/22 02:38:58;;;;;;;38.58;22.70;;;;;;;-5.76;100.00;102160.22;5027281;28;20041;-81
2021/12/22 02:41:30;;;;;;;38.10;22.23;;;;;;;-5.77;100.00;102166.34;5021705;28;20141;-80
2021/12/22 02:43:57;;;;;;;40.63;23.90;;;;;;;-5.72;100.00;102168.91;5023066;28;20041;-80
2021/12/22 02:46:30;;;;;;;41.38;23.17;;;;;;;-5.74;100.00;102163.69;5023930;28;20120;-80
2021/12/22 02:49:00;;;;;;;40.38;24.08;;;;;;;-5.73;100.00;102164.53;5029887;28;20445;-82
2021/12/22 02:51:33;;;;;;;44.17;24.85;;;;;;;-5.72;100.00;102155.84;5037508;28;20449;-81
2021/12/22 02:54:05;;;;;;;41.05;23.70;;;;;;;-5.73;100.00;102152.31;5023842;28;20048;-81
2021/12/22 02:56:51;;;;;;;44.60;25.20;;;;;;;-5.86;100.00;102161.28;5023914;28;20398;-80
2021/12/22 03:02:15;;;;;;;40.80;23.60;;;;;;;-5.83;100.00;102150.78;5022085;28;20040;-81
2021/12/22 03:04:53;;;;;;;45.90;25.52;;;;;;;-5.83;100.00;102158.63;5020566;28;20449;-82
2021/12/22 03:07:20;;;;;;;42.00;23.87;;;;;;;-5.83;100.00;102158.63;5019777;28;20041;-82
2021/12/22 03:10:00;;;;;;;46.55;24.48;;;;;;;-5.84;100.00;102156.91;5020196;28;20288;-80
2021/12/22 03:12:26;;;;;;;44.60;23.50;;;;;;;-5.84;100.00;102159.53;5022145;28;20138;-83
2021/12/22 03:14:51;;;;;;;39.95;24.25;;;;;;;-5.82;100.00;102156.88;5021574;28;20049;-81
2021/12/22 03:17:17;;;;;;;44.75;23.52;;;;;;;-5.82;100.00;102167.31;5039310;28;20039;-80
2021/12/22 03:19:42;;;;;;;39.83;22.13;;;;;;;-5.90;100.00;102167.44;5020089;28;20065;-81
2021/12/22 03:22:10;;;;;;;46.35;24.02;;;;;;;-5.93;100.00;102159.69;5022556;28;20042;-81
2021/12/22 03:24:39;;;;;;;44.53;25.13;;;;;;;-5.94;100.00;102164.06;5019045;28;20049;-80
2021/12/22 03:27:07;;;;;;;41.60;22.65;;;;;;;-5.99;100.00;102175.47;5025433;28;20319;-80
2021/12/22 03:29:35;;;;;;;44.28;25.27;;;;;;;-5.96;100.00;102172.81;5023646;28;20179;-80
2021/12/22 03:32:00;;;;;;;47.00;24.83;;;;;;;-5.97;100.00;102176.31;5023901;28;20048;-80
2021/12/22 03:34:26;;;;;;;44.47;24.10;;;;;;;-5.98;100.00;102177.22;5024830;28;20049;-82
2021/12/22 03:36:52;;;;;;;47.20;23.33;;;;;;;-6.05;100.00;102172.97;5012137;28;20486;-81
2021/12/22 03:39:17;;;;;;;46.63;23.67;;;;;;;-6.06;100.00;102173.88;5026885;28;20397;-80
2021/12/22 03:41:45;;;;;;;40.35;21.58;;;;;;;-6.01;100.00;102166.78;5024106;28;20037;-80
2021/12/22 03:44:12;;;;;;;43.28;23.23;;;;;;;-6.05;100.00;102163.38;5017291;28;20121;-79
2021/12/22 03:46:38;;;;;;;43.67;23.73;;;;;;;-6.00;100.00;102156.31;5019302;28;20049;-81
2021/12/22 03:49:09;;;;;;;42.17;23.20;;;;;;;-6.04;100.00;102162.50;5020687;28;20042;-80
2021/12/22 03:51:36;;;;;;;47.28;24.73;;;;;;;-5.97;100.00;102156.28;5019718;28;20056;-80
2021/12/22 03:54:03;;;;;;;45.78;25.00;;;;;;;-6.01;100.00;102164.16;5006320;28;20087;-80
2021/12/22 03:56:29;;;;;;;41.05;23.05;;;;;;;-6.01;100.00;102158.94;5021097;28;20576;-81
2021/12/22 03:58:54;;;;;;;39.08;24.08;;;;;;;-6.05;100.00;102165.13;5023892;28;20055;-80
2021/12/22 04:01:20;;;;;;;43.10;24.70;;;;;;;-6.12;100.00;102164.38;5021283;28;20037;-80
2021/12/22 04:03:49;;;;;;;39.28;23.02;;;;;;;-6.04;100.00;102161.59;5025191;28;20037;-80
2021/12/22 04:06:15;;;;;;;;;;;;;;;-5.99;100.00;102157.19;5022975;28;20046;-81
2021/12/22 04:08:41;;;;;;;36.50;21.90;;;;;;;-6.11;100.00;102162.59;5025529;28;19917;-81
2021/12/22 04:11:06;;;;;;;37.90;22.15;;;;;;;-6.13;100.00;102166.13;5005797;28;20225;-80
2021/12/22 04:13:32;;;;;;;36.83;21.52;;;;;;;-6.08;100.00;102166.03;4998099;28;20112;-82
2021/12/22 04:15:57;;;;;;;37.90;20.55;;;;;;;-6.16;100.00;102165.28;5024056;28;20033;-80
2021/12/22 04:18:25;;;;;;;33.60;19.38;;;;;;;-6.13;100.00;102168.75;5025019;28;20037;-82
2021/12/22 04:20:50;;;;;;;37.00;20.67;;;;;;;-6.14;100.00;102172.22;5013179;28;20554;-80
2021/12/22 04:23:16;;;;;;;36.17;20.92;;;;;;;-6.09;100.00;102164.31;5028306;28;20124;-80
2021/12/22 04:25:42;;;;;;;36.88;20.95;;;;;;;-6.16;100.00;102163.56;5028864;28;20506;-80
2021/12/22 04:28:10;;;;;;;37.65;21.90;;;;;;;-6.16;100.00;102165.28;5029875;28;20069;-80
2021/12/22 04:30:45;;;;;;;35.97;20.98;;;;;;;-6.18;100.00;102159.25;5029791;28;20124;-81
2021/12/22 04:33:11;;;;;;;35.97;20.70;;;;;;;-6.16;100.00;102165.28;5029341;28;20065;-80
2021/12/22 04:35:37;;;;;;;37.03;21.33;;;;;;;-6.16;100.00;102162.66;5030050;28;20139;-80
2021/12/22 04:38:03;;;;;;;35.22;20.58;;;;;;;-6.15;100.00;102170.50;5028158;28;20375;-80
2021/12/22 04:40:29;;;;;;;35.08;20.15;;;;;;;-6.14;100.00;102160.91;5031114;28;20087;-80
2021/12/22 04:42:55;;;;;;;35.55;20.80;;;;;;;-6.13;100.00;102167.84;5028480;28;20040;-80
2021/12/22 04:45:21;;;;;;;32.00;19.10;;;;;;;-6.21;100.00;102165.38;5030625;28;20029;-80
2021/12/22 04:47:47;;;;;;;32.63;19.55;;;;;;;-6.21;100.00;102154.91;5031221;28;20053;-81
2021/12/22 04:50:17;;;;;;;35.17;20.38;;;;;;;-6.26;100.00;102146.28;5028770;28;20038;-80
2021/12/22 04:52:55;;;;;;;31.77;17.85;;;;;;;-6.24;100.00;102135.78;5026470;28;20474;-80
2021/12/22 04:55:21;;;;;;;;;;;;;;;-6.27;100.00;102144.56;5029650;28;20060;-80
2021/12/22 04:57:47;;;;;;;36.47;19.42;;;;;;;-6.38;100.00;102139.50;5029704;28;20461;-80
2021/12/22 05:00:15;;;;;;;31.15;19.10;;;;;;;-6.33;100.00;102131.56;5029551;28;20124;-80
2021/12/22 05:02:41;;;;;;;33.35;19.58;;;;;;;-6.33;100.00;102123.72;5028457;28;20145;-80
2021/12/22 05:05:07;;;;;;;33.97;20.15;;;;;;;-6.34;100.00;102122.03;5028699;28;20073;-80
2021/12/22 05:07:32;;;;;;;34.13;20.00;;;;;;;-6.38;100.00;102125.59;5027601;28;20240;-80
2021/12/22 05:09:58;;;;;;;37.95;20.80;;;;;;;-6.30;100.00;102123.72;5028096;28;20167;-80
2021/12/22 05:12:23;;;;;;;35.63;20.42;;;;;;;-6.30;100.00;102122.81;5020724;28;20049;-81
2021/12/22 05:14:50;;;;;;;33.03;19.75;;;;;;;-6.32;100.00;102120.25;5027034;28;20164;-80
2021/12/22 05:17:39;;;;;;;35.58;20.85;;;;;;;-6.31;100.00;102131.56;5024171;28;20626;-80
2021/12/22 05:20:05;;;;;;;;;;;;;;;-6.29;100.00;102120.22;5027185;28;20049;-81
2021/12/22 05:22:31;;;;;;;35.20;21.40;;;;;;;-6.35;100.00;102125.53;5026488;28;19912;-81
2021/12/22 05:24:59;;;;;;;35.58;20.25;;;;;;;-6.38;100.00;102120.34;5025613;28;20490;-80
2021/12/22 05:27:24;;;;;;;35.60;20.20;;;;;;;-6.32;100.00;102124.63;5007421;28;20044;-80
2021/12/22 05:29:50;;;;;;;34.00;18.98;;;;;;;-6.25;100.00;102118.41;5024708;28;20280;-80
2021/12/22 05:32:15;;;;;;;36.42;20.50;;;;;;;-6.21;100.00;102113.13;5023405;28;20041;-80
2021/12/22 05:34:41;;;;;;;32.47;19.63;;;;;;;-6.26;100.00;102108.84;5011311;28;20260;-80
2021/12/22 05:37:06;;;;;;;35.83;20.52;;;;;;;-6.23;100.00;102106.19;5027039;28;20461;-80
2021/12/22 05:39:32;;;;;;;36.33;20.90;;;;;;;-6.26;100.00;102107.09;5040932;28;20495;-80
2021/12/22 05:41:58;;;;;;;35.58;21.05;;;;;;;-6.24;100.00;102104.44;5026285;28;20055;-80
2021/12/22 05:44:24;;;;;;;34.90;20.80;;;;;;;-6.21;100.00;102112.25;5020778;28;20037;-80
2021/12/22 05:46:49;;;;;;;32.58;17.48;;;;;;;-6.31;100.00;102114.13;5025390;28;20034;-80
2021/12/22 05:49:15;;;;;;;31.92;18.73;;;;;;;-6.29;100.00;102104.53;5038552;28;20092;-80
2021/12/22 05:51:40;;;;;;;31.35;18.95;;;;;;;-6.15;100.00;102115.63;5023963;28;20421;-80
2021/12/22 05:54:06;;;;;;;31.13;19.48;;;;;;;-6.11;100.00;102110.34;5008868;28;20069;-82
2021/12/22 05:56:31;;;;;;;30.92;18.95;;;;;;;-6.15;100.00;102101.69;5022760;28;20049;-80
2021/12/22 05:58:57;;;;;;;32.85;20.40;;;;;;;-6.12;100.00;102101.66;5017106;28;20549;-80
2021/12/22 06:01:22;;;;;;;29.05;16.15;;;;;;;-6.06;100.00;102095.44;5023973;28;20557;-80
2021/12/22 06:03:48;;;;;;;30.55;17.90;;;;;;;-6.06;100.00;102100.69;5024926;28;20041;-80
2021/12/22 06:06:13;;;;;;;32.28;19.75;;;;;;;-6.04;100.00;102102.38;5021391;28;20910;-80
2021/12/22 06:08:39;;;;;;;32.22;18.52;;;;;;;-6.06;100.00;102100.69;5027553;28;20587;-80
2021/12/22 06:11:04;;;;;;;27.58;16.85;;;;;;;-6.03;100.00;102101.47;5008334;28;20068;-80
2021/12/22 06:13:30;;;;;;;28.80;17.35;;;;;;;-6.04;100.00;102097.16;5022071;28;20077;-80
2021/12/22 06:15:55;;;;;;;27.38;18.15;;;;;;;-6.07;100.00;102091.09;5017484;28;20069;-80
2021/12/22 06:18:21;;;;;;;30.10;18.30;;;;;;;-6.09;100.00;102092.91;5020909;28;20489;-80
2021/12/22 06:20:46;;;;;;;28.05;17.98;;;;;;;-6.00;100.00;102087.50;5003608;28;20061;-80
2021/12/22 06:23:12;;;;;;;31.95;18.02;;;;;;;-6.02;100.00;102076.19;5023156;28;21765;-80
2021/12/22 06:25:37;;;;;;;25.65;17.60;;;;;;;-5.99;100.00;102086.59;5004959;28;20046;-80
2021/12/22 06:28:04;;;;;;;29.88;18.20;;;;;;;-5.94;100.00;102079.56;5019544;28;20045;-80
2021/12/22 06:30:29;;;;;;;27.20;16.38;;;;;;;-5.93;100.00;102076.88;5021111;28;20059;-80
2021/12/22 06:32:55;;;;;;;30.30;18.83;;;;;;;-5.94;100.00;102069.09;5026937;28;20033;-80
2021/12/22 06:35:20;;;;;;;29.83;18.60;;;;;;;-5.94;100.00;102075.19;5023561;28;20045;-80
2021/12/22 06:37:48;;;;;;;28.23;15.98;;;;;;;-5.89;100.00;102072.47;5022107;28;20041;-80
2021/12/22 06:40:14;;;;;;;27.42;16.25;;;;;;;-5.91;100.00;102072.47;5018434;28;20128;-80
2021/12/22 06:42:41;;;;;;;29.85;18.38;;;;;;;-5.86;100.00;102076.78;5020036;28;20121;-80
2021/12/22 06:45:09;;;;;;;29.98;17.50;;;;;;;-5.92;100.00;102062.06;5021823;28;20038;-79
2021/12/22 06:47:34;;;;;;;30.03;18.33;;;;;;;-5.84;100.00;102073.25;5031772;28;20052;-80
2021/12/22 06:50:00;;;;;;;28.10;18.65;;;;;;;-5.85;100.00;102074.13;5020401;28;20465;-80
2021/12/22 06:52:25;;;;;;;25.88;16.27;;;;;;;-5.82;100.00;102074.06;5017674;28;20042;-80
2021/12/22 06:54:51;;;;;;;26.48;16.17;;;;;;;-5.79;100.00;102073.13;5022138;28;20500;-81
2021/12/22 06:57:20;;;;;;;26.80;16.13;;;;;;;-5.71;100.00;102066.88;5022497;28;20034;-81
2021/12/22 06:59:45;;;;;;;30.63;19.05;;;;;;;-5.69;100.00;102077.31;5020871;28;20049;-81
2021/12/22 07:02:10;;;;;;;29.67;17.52;;;;;;;-5.68;100.00;102069.44;5022045;28;20041;-81
2021/12/22 07:04:36;;;;;;;28.95;17.38;;;;;;;-5.69;100.00;102072.94;5004060;28;20048;-82
2021/12/22 07:07:01;;;;;;;27.17;18.38;;;;;;;-5.67;100.00;102072.91;5025915;28;20125;-82
2021/12/22 07:09:28;;;;;;;32.15;19.77;;;;;;;-5.72;100.00;102080.00;5024219;28;20427;-82
2021/12/22 07:11:53;;;;;;;37.22;23.52;;;;;;;-5.70;100.00;102072.97;5002703;28;20033;-81
2021/12/22 07:14:19;;;;;;;35.67;22.10;;;;;;;-5.64;100.00;102088.53;4995577;28;20604;-81
2021/12/22 07:16:45;;;;;;;28.70;18.15;;;;;;;-5.71;100.00;102082.56;5020939;28;20041;-82
2021/12/22 07:19:11;;;;;;;30.98;18.98;;;;;;;-5.72;100.00;102083.47;5020397;28;20063;-82
2021/12/22 07:21:37;;;;;;;29.38;18.27;;;;;;;-5.74;100.00;102087.00;5009345;28;20469;-81
2021/12/22 07:24:04;;;;;;;27.30;16.90;;;;;;;-5.78;100.00;102094.03;5022548;28;20061;-82
2021/12/22 07:26:29;;;;;;;25.55;16.00;;;;;;;-5.76;100.00;102099.22;5020675;28;20249;-81
2021/12/22 07:28:55;;;;;;;26.58;16.75;;;;;;;-5.76;100.00;102105.31;5021742;28;20406;-82
2021/12/22 07:31:20;;;;;;;28.63;16.17;;;;;;;-5.74;100.00;102098.31;5020720;28;20405;-82
2021/12/22 07:34:06;;;;;;;29.65;16.83;;;;;;;-5.79;100.00;102094.91;5022237;28;20536;-82
2021/12/22 07:36:33;;;;;;;32.58;20.30;;;;;;;-5.71;100.00;102090.41;5024715;28;20075;-82
2021/12/22 07:39:02;;;;;;;30.30;18.77;;;;;;;-5.69;100.00;102088.63;5021825;28;20395;-82
2021/12/22 07:41:28;;;;;;;30.55;17.98;;;;;;;-5.71;100.00;102093.03;5020517;28;20061;-82
2021/12/22 07:43:54;;;;;;;32.95;19.75;;;;;;;-5.70;100.00;102094.78;5023521;28;20482;-81
2021/12/22 07:46:20;;;;;;;34.10;21.08;;;;;;;-5.70;100.00;102094.78;5020242;28;20079;-81
2021/12/22 07:48:46;;;;;;;33.58;21.23;;;;;;;-5.72;100.00;102091.31;5025052;28;20098;-82
2021/12/22 07:51:11;;;;;;;34.58;22.55;;;;;;;-5.70;100.00;102093.88;5021229;28;20037;-81
2021/12/22 07:53:37;;;;;;;37.25;20.45;;;;;;;-5.73;100.00;102086.09;5019254;28;20306;-81
2021/12/22 07:56:02;;;;;;;36.08;22.15;;;;;;;-5.67;100.00;102080.75;5008861;28;20037;-81
2021/12/22 07:58:28;;;;;;;36.55;23.48;;;;;;;-5.56;100.00;102080.56;5005857;28;20037;-81
2021/12/22 08:00:55;;;;;;;35.28;22.33;;;;;;;-5.53;100.00;102080.47;5003383;28;20041;-83
2021/12/22 08:03:21;;;;;;;36.63;21.33;;;;;;;-5.40;100.00;102086.34;5018660;28;20056;-82
2021/12/22 08:05:47;;;;;;;32.15;21.20;;;;;;;-5.41;100.00;102082.00;5021510;28;20053;-81
2021/12/22 08:08:13;;;;;;;36.92;22.95;;;;;;;-5.41;100.00;102089.84;5021657;28;20037;-81
2021/12/22 08:10:39;;;;;;;35.58;24.20;;;;;;;-5.40;100.00;102086.34;5016988;28;20141;-82
2021/12/22 08:13:04;;;;;;;34.53;21.02;;;;;;;-5.44;100.00;102082.91;5022222;28;20049;-82
2021/12/22 08:15:30;;;;;;;33.30;21.10;;;;;;;-5.39;100.00;102077.59;5019470;28;20113;-82
2021/12/22 08:17:57;;;;;;;40.72;24.05;;;;;;;-5.38;100.00;102068.84;5019940;28;20513;-81
2021/12/22 08:20:24;;;;;;;38.25;22.45;;;;;;;-5.36;100.00;102072.31;5016696;28;20041;-81
2021/12/22 08:22:50;;;;;;;37.42;22.25;;;;;;;-5.30;100.00;102072.19;5021476;28;20040;-81
2021/12/22 08:25:16;;;;;;;36.55;23.63;;;;;;;-5.28;100.00;102066.03;5015869;28;20501;-81
2021/12/22 08:27:42;;;;;;;35.78;21.95;;;;;;;-5.20;100.00;102071.09;5021289;28;20111;-81
2021/12/22 08:30:08;;;;;;;35.08;20.95;;;;;;;-5.17;100.00;102067.56;5002872;28;20037;-82
2021/12/22 08:32:35;;;;;;;36.95;21.75;;;;;;;-5.11;100.00;102075.28;5021595;28;20466;-82
2021/12/22 08:35:03;;;;;;;43.55;25.40;;;;;;;-5.04;100.00;102069.88;5022134;28;20086;-81
2021/12/22 08:40:14;;;;;;;41.63;23.27;;;;;;;-4.95;100.00;102063.56;5021369;28;20057;-82
2021/12/22 08:42:43;;;;;;;38.08;25.13;;;;;;;-4.91;100.00;102054.75;5019741;28;20434;-82
2021/12/22 08:45:09;;;;;;;41.50;24.92;;;;;;;-4.86;100.00;102052.91;5022984;28;20053;-81
2021/12/22 08:47:35;;;;;;;41.58;25.35;;;;;;;-4.80;100.00;102051.91;5021249;28;20042;-81
2021/12/22 08:50:00;;;;;;;42.00;24.27;;;;;;;-4.77;100.00;102051.84;5035423;28;20048;-82
2021/12/22 08:52:26;;;;;;;43.20;25.75;;;;;;;-4.68;100.00;102053.38;5021263;28;20411;-82
2021/12/22 08:54:51;;;;;;;42.95;24.42;;;;;;;-4.63;100.00;102048.88;5018102;28;20050;-81
2021/12/22 08:57:17;;;;;;;43.30;24.65;;;;;;;-4.59;100.00;102045.28;5020906;28;20030;-81
2021/12/22 08:59:43;;;;;;;43.10;23.67;;;;;;;-4.58;100.00;102049.63;5020801;28;20057;-81
2021/12/22 09:02:10;;;;;;;47.05;26.33;;;;;;;-4.49;100.00;102052.03;5008835;28;20045;-82
2021/12/22 09:04:36;;;;;;;45.08;26.00;;;;;;;-4.48;100.00;102059.00;5023272;28;20061;-82
2021/12/22 09:07:02;;;;;;;44.33;26.55;;;;;;;-4.45;100.00;102053.69;5022985;28;20050;-81
2021/12/22 09:09:28;;;;;;;47.17;25.35;;;;;;;-4.42;100.00;102058.84;5023201;28;20136;-82
2021/12/22 09:11:54;;;;;;;42.15;24.92;;;;;;;-4.35;100.00;102060.41;5020118;28;20049;-82
2021/12/22 09:14:21;;;;;;;44.85;25.00;;;;;;;-4.31;100.00;102054.22;5019445;28;20053;-82
2021/12/22 09:16:48;;;;;;;45.13;24.38;;;;;;;-4.27;100.00;102056.75;5025723;28;20465;-82
2021/12/22 09:19:14;;;;;;;39.83;23.05;;;;;;;-4.24;100.00;102060.16;5021482;28;20065;-81
2021/12/22 09:21:40;;;;;;;46.17;25.17;;;;;;;-4.23;100.00;102059.28;5018985;28;20080;-82
2021/12/22 09:24:06;;;;;;;48.03;25.17;;;;;;;-4.14;100.00;102053.78;5007787;28;20049;-82
2021/12/22 09:26:32;;;;;;;48.53;24.58;;;;;;;-4.06;100.00;102050.94;5022590;28;20485;-81
2021/12/22 09:28:58;;;;;;;52.17;28.77;;;;;;;-4.01;100.00;102058.69;5024131;28;20041;-82
2021/12/22 09:31:31;;;;;;;51.33;28.90;;;;;;;-3.97;100.00;102053.34;5023159;28;20056;-82
2021/12/22 09:33:57;;;;;;;42.60;23.17;;;;;;;-3.99;100.00;102070.88;5023293;28;20128;-82
2021/12/22 09:36:22;;;;;;;49.50;27.63;;;;;;;-3.94;100.00;102084.75;5022261;28;20749;-81
2021/12/22 09:38:48;;;;;;;42.85;23.98;;;;;;;-3.89;100.00;102090.69;5025522;28;20048;-82
2021/12/22 09:41:15;;;;;;;42.80;24.65;;;;;;;-3.78;100.00;102076.47;5023954;28;20029;-82
2021/12/22 09:43:41;;;;;;;41.28;22.60;;;;;;;-3.72;100.00;102074.53;5025805;28;20555;-82
2021/12/22 09:46:11;;;;;;;37.97;22.88;;;;;;;-3.66;100.00;102076.97;5020249;28;20045;-82
2021/12/22 09:53:54;;;;;;;41.87;25.23;;;;;;;-3.33;100.00;102074.31;5021977;28;20068;-83
2021/12/22 09:56:22;;;;;;;39.83;22.17;;;;;;;-3.34;100.00;102072.59;5023517;28;20371;-82
2021/12/22 09:58:49;;;;;;;38.40;23.20;;;;;;;-3.27;100.00;102057.53;5005619;28;20049;-83
2021/12/22 10:01:22;;;;;;;42.75;24.52;;;;;;;-3.15;100.00;102072.94;5021983;28;20040;-83
2021/12/22 10:03:49;;;;;;;39.63;22.75;;;;;;;-3.12;100.00;102069.34;5021237;28;20397;-82
2021/12/22 10:06:14;;;;;;;42.83;23.20;;;;;;;-3.11;100.00;102064.03;5021537;28;20057;-83
2021/12/22 10:08:59;;;;;;;39.85;20.90;;;;;;;-3.04;100.00;102060.34;5024580;28;20042;-83
2021/12/22 10:11:25;;;;;;;36.55;21.27;;;;;;;-2.97;100.00;102059.22;5023085;28;20046;-82
2021/12/22 10:13:50;;;;;;;34.92;20.90;;;;;;;-2.92;100.00;102058.25;5005351;28;20552;-83
2021/12/22 10:16:25;;;;;;;38.83;21.23;;;;;;;-2.89;100.00;102055.53;5022111;28;20391;-82
2021/12/22 10:19:08;;;;;;;37.13;23.30;;;;;;;-2.84;100.00;102045.75;5035353;28;20049;-83
2021/12/22 10:21:37;;;;;;;41.83;22.60;;;;;;;-2.73;100.00;102041.88;5021771;28;20045;-83
2021/12/22 10:24:05;;;;;;;37.22;22.40;;;;;;;-2.64;100.00;102037.25;5018137;28;20631;-83
2021/12/22 10:26:31;;;;;;;39.50;22.67;;;;;;;-2.62;100.00;102030.16;5020004;28;20406;-83
2021/12/22 10:29:06;;;;;;;35.22;21.38;;;;;;;-2.61;100.00;102040.63;5024936;28;20071;-82
2021/12/22 10:31:45;;;;;;;41.35;23.83;;;;;;;-2.60;100.00;102034.44;5023638;28;20045;-83
2021/12/22 10:34:16;;;;;;;;;;;;;;;-2.50;100.00;102038.50;5022247;28;20049;-83
2021/12/22 10:36:50;;;;;;;39.08;23.45;;;;;;;-2.54;100.00;102028.97;5021195;28;20266;-83
2021/12/22 10:39:33;;;;;;;33.83;19.42;;;;;;;-2.50;100.00;102033.25;5020825;28;20056;-83
2021/12/22 10:42:10;;;;;;;31.63;18.98;;;;;;;-2.45;100.00;102032.22;4999929;28;20128;-82
2021/12/22 10:44:38;;;;;;;30.17;19.15;;;;;;;-2.38;100.00;102023.25;5017507;28;20541;-83
2021/12/22 10:49:14;;;;;;;37.40;21.23;;;;;;;-2.25;100.00;102040.31;5014860;28;20033;-83
2021/12/22 10:50:24;;;;;;;33.20;18.35;;;;;;;-2.24;100.00;102034.16;5029798;28;20136;-83
2021/12/22 10:52:50;;;;;;;34.45;18.67;;;;;;;-2.15;100.00;102023.31;5023564;28;20041;-83
2021/12/22 10:55:15;;;;;;;35.75;20.33;;;;;;;-2.12;100.00;102028.47;5007038;28;20042;-83
2021/12/22 10:57:43;;;;;;;32.47;18.35;;;;;;;-2.08;100.00;102016.91;5023258;28;20090;-84
2021/12/22 11:00:13;;;;;;;31.95;19.33;;;;;;;-2.04;100.00;102015.06;5003702;28;20051;-83
2021/12/22 11:02:42;;;;;;;31.02;20.58;;;;;;;-1.98;100.00;102008.72;5013824;28;20136;-82
2021/12/22 11:05:17;;;;;;;32.17;20.13;;;;;;;-1.92;100.00;102000.63;5024004;28;20099;-82
2021/12/22 11:07:45;;;;;;;30.52;18.20;;;;;;;-1.94;100.00;101991.91;5021811;28;20033;-83
2021/12/22 11:10:25;;;;;;;30.48;18.80;;;;;;;-1.90;100.00;101990.88;5025469;28;20211;-82
2021/12/22 11:13:04;;;;;;;29.00;18.58;;;;;;;-1.89;100.00;101989.97;5038210;28;20281;-82
2021/12/22 11:15:30;;;;;;;32.42;20.30;;;;;;;-1.85;100.00;101991.56;5018703;28;20279;-83
2021/12/22 11:17:55;;;;;;;27.95;17.52;;;;;;;-1.89;100.00;101988.19;5022099;28;20582;-82
2021/12/22 11:20:24;;;;;;;29.40;16.00;;;;;;;-1.81;100.00;102001.09;5023496;28;20045;-82
2021/12/22 11:23:10;;;;;;;31.10;20.27;;;;;;;-1.71;100.00;101997.19;5031829;28;20056;-83